createdAt,value
2023-02-01T17:03:19.517Z,19.50
2023-02-01T17:05:52.964Z,21.10
2023-02-01T17:08:27.255Z,20.00
2023-02-01T17:10:53.991Z,21.20
2023-02-01T17:13:20.875Z,21.40
2023-02-01T17:15:57.156Z,18.40
2023-02-01T17:18:25.767Z,17.20
2023-02-01T17:20:52.562Z,11.60
2023-02-01T17:23:20.035Z,11.00
2023-02-01T17:25:48.261Z,10.10
2023-02-01T17:28:16.398Z,8.90
2023-02-01T17:30:43.233Z,12.10
2023-02-01T17:33:22.586Z,11.60
2023-02-01T17:35:50.849Z,14.80
2023-02-01T17:38:18.436Z,14.90
2023-02-01T17:40:45.290Z,18.10
2023-02-01T17:43:14.146Z,17.40
2023-02-01T17:45:53.299Z,17.30
2023-02-01T17:48:20.819Z,16.30
2023-02-01T17:50:50.364Z,17.10
2023-02-01T20:53:52.464Z,12.80
2023-02-01T20:56:20.655Z,14.80
2023-02-01T20:58:47.820Z,11.80
2023-02-01T21:01:15.409Z,14.00
2023-02-01T21:03:42.664Z,10.30
2023-02-01T21:06:11.967Z,10.80
2023-02-01T21:08:40.928Z,10.10
2023-02-01T21:11:10.649Z,12.40
2023-02-01T21:13:43.780Z,14.10
2023-02-01T21:16:12.766Z,8.50
2023-02-01T21:18:41.745Z,8.80
2023-02-01T21:21:10.786Z,12.40
2023-02-01T21:23:44.383Z,12.90
2023-02-01T21:26:17.711Z,13.50
2023-02-01T21:28:45.066Z,9.90
2023-02-01T21:31:17.912Z,12.00
2023-02-01T21:33:47.772Z,11.90
2023-02-01T21:36:18.457Z,11.40
2023-02-01T21:38:50.610Z,16.70
2023-02-01T21:41:41.594Z,11.40
2023-02-01T21:44:09.043Z,14.70
2023-02-01T21:46:36.601Z,10.70
2023-02-01T21:49:06.107Z,12.90
2023-02-01T21:51:37.513Z,10.80
2023-02-01T21:54:05.637Z,11.90
2023-02-01T21:56:33.231Z,11.20
2023-02-01T21:59:00.246Z,12.00
2023-02-01T22:01:27.134Z,8.00
2023-02-01T22:03:54.183Z,8.90
2023-02-01T22:06:25.491Z,9.10
2023-02-01T22:08:52.777Z,8.00
2023-02-01T22:11:21.122Z,10.80
2023-02-01T22:13:48.030Z,10.40
2023-02-01T22:16:17.455Z,13.50
2023-02-01T22:18:44.947Z,11.00
2023-02-01T22:21:11.878Z,12.20
2023-02-01T22:23:39.331Z,11.30
2023-02-01T22:26:10.202Z,13.20
2023-02-01T22:28:37.948Z,12.60
2023-02-01T22:31:06.176Z,10.30
2023-02-01T22:33:33.788Z,9.70
2023-02-01T22:36:01.101Z,11.50
2023-02-01T22:38:35.038Z,11.00
2023-02-01T22:41:05.362Z,12.60
2023-02-01T22:43:32.847Z,9.00
2023-02-01T22:46:05.044Z,11.30
2023-02-01T22:48:37.317Z,10.10
2023-02-01T22:51:05.305Z,11.20
2023-02-01T22:53:32.169Z,11.70
2023-02-01T22:56:10.064Z,17.40
2023-02-01T22:58:37.050Z,16.60
2023-02-01T23:01:11.351Z,18.20
2023-02-01T23:03:38.583Z,16.40
2023-02-01T23:06:06.663Z,16.30
2023-02-01T23:08:38.732Z,20.60
2023-02-01T23:11:07.410Z,11.70
2023-02-01T23:13:35.063Z,18.00
2023-02-01T23:16:06.846Z,13.80
2023-02-01T23:18:33.801Z,13.20
2023-02-01T23:21:11.219Z,12.90
2023-02-01T23:23:38.171Z,15.10
2023-02-01T23:26:08.871Z,17.00
2023-02-01T23:28:35.588Z,12.20
2023-02-01T23:31:07.790Z,19.30
2023-02-01T23:33:34.793Z,16.20
2023-02-01T23:36:03.734Z,10.70
2023-02-01T23:38:30.994Z,13.20
2023-02-01T23:40:59.737Z,14.40
2023-02-01T23:43:45.717Z,8.30
2023-02-01T23:46:12.822Z,11.20
2023-02-01T23:48:39.626Z,10.60
2023-02-01T23:51:06.422Z,9.20
2023-02-01T23:53:33.653Z,9.50
